Time;durP1;ratioP1;P1;durP2;ratioP2;P2;SDS_P1;SDS_P2;PMS_P1;PMS_P2;Temp;Humidity;BMP_temperature;BMP_pressure;BME280_temperature;BME280_humidity;BME280_pressure;Samples;Min_cycle;Max_cycle;Signal;HPM_P1;HPM_P2
2021/01/02 00:00:25;;;;;;;285.60;170.48;;;102.80;1996.80;;;;;;5032130;28;20551;-86
2021/01/02 00:03:22;;;;;;;312.23;183.52;;;103.00;1996.80;;;;;;5033127;28;20061;-83
2021/01/02 00:06:05;;;;;;;295.45;176.25;;;103.10;1971.20;;;;;;5033568;28;20500;-88
2021/01/02 00:08:33;;;;;;;285.50;170.55;;;102.80;1996.80;;;;;;5033223;28;20018;-81
2021/01/02 00:11:23;;;;;;;262.52;148.85;;;102.60;2048.00;;;;;;5032725;28;20103;-84
2021/01/02 00:14:23;;;;;;;249.30;153.60;;;102.40;2073.60;;;;;;5033007;28;20036;-81
2021/01/02 00:17:01;;;;;;;221.63;136.90;;;102.50;2048.00;;;;;;5031514;28;20048;-82
2021/01/02 00:20:01;;;;;;;206.70;126.25;;;102.50;2022.40;;;;;;5032553;28;20037;-86
2021/01/02 00:22:57;;;;;;;199.25;119.95;;;102.50;2048.00;;;;;;5033642;28;20028;-85
2021/01/02 00:25:28;;;;;;;165.63;98.22;;;77.60;2073.60;;;;;;5032226;28;20036;-85
2021/01/02 00:28:47;;;;;;;160.15;100.13;;;102.50;2048.00;;;;;;5015169;28;20095;-84
2021/01/02 00:38:11;;;;;;;116.60;66.18;;;77.60;2048.00;;;;;;5033976;28;20071;-86
2021/01/02 00:40:38;;;;;;;119.18;71.47;;;77.70;2048.00;;;;;;5013706;28;20038;-83
2021/01/02 00:43:07;;;;;;;137.88;79.70;;;102.50;2022.40;;;;;;5032721;28;20037;-83
2021/01/02 00:45:33;;;;;;;146.57;84.07;;;102.60;1996.80;;;;;;5032337;28;20053;-83
2021/01/02 00:48:03;;;;;;;150.27;88.05;;;102.60;1996.80;;;;;;5016143;28;20028;-85
2021/01/02 00:50:29;;;;;;;138.43;84.50;;;102.70;1996.80;;;;;;5032276;28;20029;-85
2021/01/02 00:52:55;;;;;;;145.23;85.20;;;102.50;2022.40;;;;;;5015874;28;20021;-84
2021/01/02 00:55:32;;;;;;;142.27;86.93;;;102.60;1996.80;;;;;;5032637;28;20397;-86
2021/01/02 00:58:27;;;;;;;155.70;95.38;;;77.70;2022.40;;;;;;5032553;28;20029;-83
2021/01/02 01:01:35;;;;;;;174.43;103.18;;;77.50;2048.00;;;;;;5032260;28;20041;-84
2021/01/02 01:07:21;;;;;;;168.80;98.20;;;77.40;2099.20;;;;;;5033476;28;20521;-81
2021/01/02 01:10:31;;;;;;;157.35;94.30;;;76.90;2124.80;;;;;;5032443;28;20492;-81
2021/01/02 01:13:30;;;;;;;158.63;82.97;;;76.90;2124.80;;;;;;5033468;28;20030;-84
2021/01/02 01:16:01;;;;;;;136.43;82.75;;;77.20;2099.20;;;;;;5005198;28;20033;-84
2021/01/02 01:19:10;;;;;;;128.88;73.25;;;77.20;2073.60;;;;;;5015275;28;20136;-83
2021/01/02 01:25:37;;;;;;;124.38;71.50;;;77.30;2099.20;;;;;;4973997;28;20036;-83
2021/01/02 01:28:08;;;;;;;147.48;81.88;;;77.50;2048.00;;;;;;5032055;28;20489;-83
2021/01/02 01:30:39;;;;;;;168.98;97.35;;;77.60;2048.00;;;;;;5032557;28;20080;-86
2021/01/02 01:33:08;;;;;;;187.68;111.95;;;77.50;2022.40;;;;;;5031958;28;20037;-85
2021/01/02 01:35:41;;;;;;;172.82;98.15;;;77.70;2022.40;;;;;;5032433;28;20056;-85
2021/01/02 01:38:14;;;;;;;162.25;92.57;;;77.40;2073.60;;;;;;5036433;28;20026;-83
2021/01/02 01:40:44;;;;;;;151.52;88.47;;;77.40;2073.60;;;;;;5035866;28;20034;-84
2021/01/02 01:43:26;;;;;;;147.70;87.45;;;77.50;2048.00;;;;;;5036318;28;20036;-86
2021/01/02 01:49:31;;;;;;;152.35;94.25;;;77.60;2048.00;;;;;;5036814;28;20027;-86
2021/01/02 01:52:03;;;;;;;165.27;100.25;;;77.70;2048.00;;;;;;5035114;28;20501;-82
2021/01/02 01:54:49;;;;;;;178.13;101.00;;;77.60;2022.40;;;;;;5018842;28;20025;-83
2021/01/02 01:57:29;;;;;;;278.88;140.48;;;77.70;2022.40;;;;;;5035540;28;20036;-84
2021/01/02 01:59:58;;;;;;;190.63;108.35;;;77.70;2022.40;;;;;;5029306;28;20508;-85
2021/01/02 02:03:00;;;;;;;155.55;90.85;;;77.70;2022.40;;;;;;5041334;28;20393;-85
2021/01/02 02:05:33;;;;;;;130.10;76.93;;;102.40;1996.80;;;;;;5042312;28;20025;-83
2021/01/02 02:08:15;;;;;;;117.43;75.55;;;77.50;2048.00;;;;;;5040893;28;20025;-84
2021/01/02 02:11:05;;;;;;;135.13;81.97;;;51.60;2048.00;;;;;;5035885;28;20026;-83
2021/01/02 02:14:22;;;;;;;124.40;77.03;;;77.00;2073.60;;;;;;5035344;28;20060;-83
2021/01/02 02:17:35;;;;;;;145.00;89.30;;;77.20;2073.60;;;;;;5005748;28;20072;-82
2021/01/02 02:21:05;;;;;;;151.93;89.97;;;76.90;2099.20;;;;;;5015251;28;20107;-82
2021/01/02 02:24:24;;;;;;;146.60;83.90;;;76.90;2099.20;;;;;;4963787;28;20049;-81
2021/01/02 02:38:13;;;;;;;141.32;79.57;;;52.00;2124.80;;;;;;4956990;29;20034;-78
2021/01/02 02:41:38;;;;;;;138.18;78.10;;;52.00;2124.80;;;;;;4954339;29;20039;-79
2021/01/02 02:45:30;;;;;;;102.55;58.63;;;51.90;2099.20;;;;;;4935194;29;20063;-79
2021/01/02 02:49:07;;;;;;;95.97;54.22;;;52.00;2124.80;;;;;;4878254;29;20205;-78
2021/01/02 02:56:13;;;;;;;94.75;54.53;;;51.40;2176.00;;;;;;4881774;29;20036;-78
2021/01/02 03:00:01;;;;;;;99.95;58.83;;;51.40;2201.60;;;;;;4827891;29;20050;-78
2021/01/02 03:07:05;;;;;;;116.00;67.93;;;52.10;2124.80;;;;;;4803330;29;20167;-79
2021/01/02 03:10:35;;;;;;;121.00;71.43;;;51.80;2124.80;;;;;;4803589;29;20035;-79
2021/01/02 03:56:26;;;;;;;71.30;43.72;;;51.80;2124.80;;;;;;4957744;29;20046;-78
2021/01/02 04:03:22;;;;;;;88.75;54.50;;;51.20;2176.00;;;;;;4955577;29;20043;-78
2021/01/02 04:07:04;;;;;;;108.43;63.85;;;51.60;2124.80;;;;;;4938594;29;20036;-78
2021/01/02 04:10:34;;;;;;;116.43;59.33;;;51.50;2124.80;;;;;;4938335;29;20036;-78
2021/01/02 04:14:16;;;;;;;134.27;69.18;;;51.60;2099.20;;;;;;4900666;29;20015;-79
2021/01/02 04:17:24;;;;;;;120.88;68.47;;;51.80;2073.60;;;;;;4862242;29;20078;-78
2021/01/02 04:28:13;;;;;;;85.78;49.13;;;52.10;2073.60;;;;;;4857999;29;20044;-79
2021/01/02 04:42:37;;;;;;;101.75;53.72;;;51.20;2150.40;;;;;;4795447;30;20090;-78
2021/01/02 04:45:43;;;;;;;100.50;53.85;;;26.00;2176.00;;;;;;4807474;29;20085;-79
2021/01/02 04:55:56;;;;;;;97.15;51.88;;;26.40;2150.40;;;;;;4826912;29;20140;-79
2021/01/02 05:03:03;;;;;;;61.13;36.38;;;26.40;2150.40;;;;;;4849430;29;20141;-79
2021/01/02 05:24:07;;;;;;;59.35;33.60;;;26.10;2150.40;;;;;;4884431;29;20056;-79
2021/01/02 05:27:32;;;;;;;80.95;43.70;;;26.10;2099.20;;;;;;4902154;29;20033;-78
2021/01/02 05:30:50;;;;;;;76.15;41.22;;;26.20;2124.80;;;;;;4886885;29;20061;-78
2021/01/02 05:34:23;;;;;;;86.18;45.90;;;26.30;2124.80;;;;;;4902345;29;20053;-79
2021/01/02 05:41:02;;;;;;;98.47;57.53;;;51.30;2124.80;;;;;;4921242;29;20069;-78
2021/01/02 05:44:39;;;;;;;71.85;40.17;;;51.40;2099.20;;;;;;4901525;29;20033;-79
2021/01/02 05:48:37;;;;;;;65.82;36.70;;;51.30;2073.60;;;;;;4908422;29;20044;-78
2021/01/02 05:52:10;;;;;;;58.22;36.35;;;51.30;2073.60;;;;;;4902364;29;20029;-78
2021/01/02 05:55:28;;;;;;;67.03;38.08;;;26.20;2099.20;;;;;;4898223;29;20049;-79
2021/01/02 05:59:13;;;;;;;75.35;42.30;;;26.40;2099.20;;;;;;4901414;29;20054;-78
2021/01/02 06:02:40;;;;;;;88.45;50.72;;;26.20;2124.80;;;;;;4889695;29;20096;-78
2021/01/02 06:05:16;;;;;;;108.05;62.38;;;26.30;2124.80;;;;;;4914860;29;20028;-78
2021/01/02 06:08:19;;;;;;;100.03;56.42;;;26.20;2099.20;;;;;;4938221;29;20110;-78
2021/01/02 06:11:44;;;;;;;85.78;47.33;;;26.50;2099.20;;;;;;5034007;28;20049;-78
2021/01/02 06:14:42;;;;;;;99.18;55.28;;;26.40;2124.80;;;;;;5037909;28;20018;-78
2021/01/02 06:17:35;;;;;;;116.22;66.80;;;26.30;2124.80;;;;;;5035727;28;20037;-78
2021/01/02 06:20:45;;;;;;;89.20;47.53;;;25.90;2150.40;;;;;;5022005;28;20525;-78
2021/01/02 06:24:01;;;;;;;81.70;45.65;;;26.00;2099.20;;;;;;5034955;28;20034;-78
2021/01/02 06:27:13;;;;;;;196.00;103.32;;;26.10;2124.80;;;;;;5014540;28;20038;-78
2021/01/02 06:30:38;;;;;;;123.25;69.70;;;26.00;2099.20;;;;;;5030770;28;20022;-78
2021/01/02 06:33:41;;;;;;;89.72;50.10;;;25.80;2150.40;;;;;;5041332;28;20065;-78
2021/01/02 06:36:50;;;;;;;142.40;77.13;;;26.10;2099.20;;;;;;5025541;28;20038;-79
2021/01/02 06:39:52;;;;;;;115.55;64.22;;;26.00;2124.80;;;;;;5035205;28;20056;-78
2021/01/02 06:43:15;;;;;;;102.53;58.65;;;26.20;2099.20;;;;;;5033058;28;20128;-79
2021/01/02 06:50:28;;;;;;;555.85;301.25;;;26.10;2099.20;;;;;;4938478;29;20038;-79
2021/01/02 06:54:26;;;;;;;177.30;102.97;;;25.80;2124.80;;;;;;4900395;29;20486;-79
2021/01/02 06:57:30;;;;;;;165.10;96.32;;;25.80;2150.40;;;;;;4838049;29;20077;-79
2021/01/02 07:00:35;;;;;;;110.63;64.85;;;26.10;2150.40;;;;;;4882638;29;20041;-78
2021/01/02 07:04:09;;;;;;;126.90;68.10;;;25.80;2150.40;;;;;;4888168;29;20034;-79
2021/01/02 07:07:32;;;;;;;122.00;72.30;;;26.00;2099.20;;;;;;4870013;29;20048;-79
2021/01/02 07:11:15;;;;;;;249.40;165.70;;;26.20;2124.80;;;;;;4889622;29;20045;-78
2021/01/02 07:14:40;;;;;;;143.35;89.57;;;25.70;2124.80;;;;;;4858476;29;20041;-79
2021/01/02 07:17:43;;;;;;;171.25;104.97;;;26.00;2124.80;;;;;;4911661;29;20096;-79
2021/01/02 07:20:44;;;;;;;141.48;88.63;;;26.00;2150.40;;;;;;4902050;29;20052;-79
2021/01/02 07:24:00;;;;;;;109.13;68.50;;;26.10;2150.40;;;;;;4925746;28;20025;-78
2021/01/02 07:26:48;;;;;;;184.27;123.82;;;26.10;2124.80;;;;;;4983127;28;20074;-79
2021/01/02 07:30:41;;;;;;;136.73;82.05;;;25.80;2176.00;;;;;;4992878;28;20030;-79
2021/01/02 07:33:49;;;;;;;156.93;99.70;;;25.60;2201.60;;;;;;4988358;28;20514;-79
2021/01/02 07:37:02;;;;;;;131.30;65.57;;;25.70;2201.60;;;;;;4968858;28;20188;-78
2021/01/02 07:40:14;;;;;;;162.77;87.97;;;25.90;2176.00;;;;;;4990272;28;20130;-79
2021/01/02 07:43:28;;;;;;;;;;;26.00;2150.40;;;;;;4992963;28;20099;-78
2021/01/02 07:47:06;;;;;;;147.82;81.22;;;26.40;2124.80;;;;;;4976169;29;19907;-79
2021/01/02 07:50:49;;;;;;;135.65;83.45;;;26.20;2150.40;;;;;;4964753;29;20021;-78
2021/01/02 07:54:21;;;;;;;109.40;65.43;;;26.20;2150.40;;;;;;4935291;29;20052;-79
2021/01/02 07:56:56;;;;;;;174.18;96.78;;;26.30;2176.00;;;;;;4976547;28;20402;-78
2021/01/02 07:59:40;;;;;;;171.20;101.90;;;26.30;2176.00;;;;;;5027774;28;20049;-78
2021/01/02 08:02:11;;;;;;;125.05;77.35;;;51.30;2124.80;;;;;;5027930;28;20482;-77
2021/01/02 08:04:40;;;;;;;179.65;112.47;;;51.20;2150.40;;;;;;5029814;28;20076;-77
2021/01/02 08:07:19;;;;;;;158.30;97.03;;;51.20;2176.00;;;;;;5002739;28;20045;-77
2021/01/02 08:13:29;;;;;;;161.70;103.72;;;51.30;2176.00;;;;;;5005171;28;20122;-78
2021/01/02 08:17:11;;;;;;;194.00;117.20;;;51.70;2124.80;;;;;;5013500;28;20077;-78
2021/01/02 08:19:58;;;;;;;204.45;134.40;;;51.80;2124.80;;;;;;4973460;29;20043;-80
2021/01/02 08:22:42;;;;;;;217.57;132.40;;;51.90;2124.80;;;;;;4972053;29;20019;-79
2021/01/02 08:25:30;;;;;;;219.93;136.38;;;52.00;2124.80;;;;;;4954674;29;20113;-80
2021/01/02 08:28:30;;;;;;;225.65;155.32;;;52.10;2124.80;;;;;;4955191;28;20057;-79
2021/01/02 08:31:11;;;;;;;194.38;126.78;;;52.00;2124.80;;;;;;4966585;28;20666;-78
2021/01/02 08:41:18;;;;;;;314.38;172.30;;;77.00;2099.20;;;;;;5076148;28;20090;-79
2021/01/02 08:43:50;;;;;;;;;;;76.90;2124.80;;;;;;4979250;28;20053;-80
2021/01/02 08:46:27;;;;;;;237.25;151.98;;;77.00;2124.80;;;;;;4965757;28;19914;-79
2021/01/02 08:49:02;;;;;;;240.43;161.43;;;77.10;2124.80;;;;;;4969310;28;20026;-79
2021/01/02 08:51:30;;;;;;;196.20;128.98;;;77.20;2099.20;;;;;;4979694;28;20046;-80
2021/01/02 08:54:16;;;;;;;152.55;97.25;;;77.40;2073.60;;;;;;4962678;28;20070;-79
2021/01/02 08:56:42;;;;;;;190.75;125.55;;;77.40;2099.20;;;;;;4963853;28;20027;-81
2021/01/02 08:59:14;;;;;;;154.88;105.82;;;77.50;2099.20;;;;;;4965709;28;20038;-78
2021/01/02 09:01:40;;;;;;;142.77;93.95;;;77.60;2073.60;;;;;;5035109;28;20045;-80
2021/01/02 09:04:13;;;;;;;131.75;84.75;;;77.70;2073.60;;;;;;5049745;28;20148;-80
2021/01/02 09:06:40;;;;;;;134.77;94.75;;;102.40;2048.00;;;;;;5051455;28;20048;-84
2021/01/02 09:09:07;;;;;;;124.28;82.80;;;102.50;2073.60;;;;;;5053041;28;20167;-84
2021/01/02 09:11:51;;;;;;;146.10;89.03;;;102.60;2048.00;;;;;;5039102;28;20017;-84
2021/01/02 09:14:18;;;;;;;130.27;86.85;;;102.70;2048.00;;;;;;5035166;28;20113;-81
2021/01/02 09:17:01;;;;;;;129.43;88.47;;;102.80;2022.40;;;;;;5053793;28;20072;-83
2021/01/02 09:19:27;;;;;;;142.18;95.63;;;102.90;2048.00;;;;;;5052648;28;20036;-81
2021/01/02 09:21:53;;;;;;;117.93;78.03;;;103.10;2022.40;;;;;;5052793;28;20029;-83
2021/01/02 09:24:23;;;;;;;105.10;70.07;;;103.30;2022.40;;;;;;5052085;28;20120;-82
2021/01/02 09:26:50;;;;;;;94.32;61.15;;;103.30;2022.40;;;;;;5053129;28;20017;-84
2021/01/02 09:29:17;;;;;;;97.18;61.03;;;103.30;1996.80;;;;;;5050796;28;20143;-82
2021/01/02 09:31:44;;;;;;;107.18;72.68;;;103.30;1996.80;;;;;;5035221;28;20458;-83
2021/01/02 09:34:11;;;;;;;110.20;71.28;;;128.00;2048.00;;;;;;5051550;28;20052;-82
2021/01/02 09:36:38;;;;;;;116.85;76.18;;;128.30;2022.40;;;;;;5035264;28;20021;-87
2021/01/02 09:39:06;;;;;;;130.85;85.38;;;128.40;1996.80;;;;;;5051087;28;20049;-81
2021/01/02 09:41:32;;;;;;;104.22;71.30;;;128.60;1996.80;;;;;;5035936;28;20021;-83
2021/01/02 09:44:00;;;;;;;96.40;61.72;;;128.80;1971.20;;;;;;5042626;28;20468;-83
2021/01/02 09:46:28;;;;;;;108.25;75.88;;;154.40;1945.60;;;;;;5037947;28;20051;-86
2021/01/02 09:48:56;;;;;;;100.85;67.93;;;153.70;1971.20;;;;;;5054256;28;20032;-85
2021/01/02 09:51:25;;;;;;;67.47;46.20;;;153.80;1945.60;;;;;;5038030;28;20052;-84
2021/01/02 09:53:51;;;;;;;76.20;51.80;;;153.90;1920.00;;;;;;5055913;28;20025;-84
2021/01/02 09:56:17;;;;;;;86.78;58.38;;;154.00;1920.00;;;;;;5038582;28;20449;-82
2021/01/02 09:58:43;;;;;;;91.13;57.60;;;154.20;1920.00;;;;;;5037702;28;20049;-83
2021/01/02 10:01:09;;;;;;;94.82;59.55;;;154.20;1920.00;;;;;;5055505;28;20492;-85
2021/01/02 10:03:35;;;;;;;59.50;41.83;;;154.40;1920.00;;;;;;5055336;28;20072;-83
2021/01/02 10:06:03;;;;;;;49.08;34.92;;;179.30;1868.80;;;;;;5038340;28;20029;-80
2021/01/02 10:08:29;;;;;;;50.15;31.75;;;179.40;1868.80;;;;;;5056422;28;20075;-78
2021/01/02 10:10:54;;;;;;;51.00;32.88;;;179.60;1843.20;;;;;;5053468;28;20021;-76
2021/01/02 10:13:20;;;;;;;54.20;36.08;;;179.60;1843.20;;;;;;5054473;28;20017;-81
2021/01/02 10:15:47;;;;;;;51.33;32.97;;;180.10;1817.60;;;;;;5037048;28;20021;-82
2021/01/02 10:18:13;;;;;;;47.50;30.30;;;179.90;1817.60;;;;;;5054671;28;20502;-83
2021/01/02 10:20:40;;;;;;;37.67;24.33;;;179.90;1817.60;;;;;;5037829;28;20119;-81
2021/01/02 10:23:06;;;;;;;76.13;43.83;;;205.00;1740.80;;;;;;5056059;28;20024;-84
2021/01/02 10:25:31;;;;;;;85.95;52.00;;;204.90;1766.40;;;;;;5037673;28;20028;-81
2021/01/02 10:27:57;;;;;;;79.10;48.35;;;205.00;1766.40;;;;;;5055914;28;20079;-80
2021/01/02 10:30:23;;;;;;;39.15;24.85;;;205.10;1766.40;;;;;;5055660;28;20029;-83
2021/01/02 10:32:49;;;;;;;47.05;30.10;;;205.20;1740.80;;;;;;5055790;28;20517;-82
2021/01/02 10:35:16;;;;;;;42.17;28.42;;;205.30;1740.80;;;;;;5055611;28;20110;-85
2021/01/02 10:37:44;;;;;;;41.88;28.35;;;205.30;1740.80;;;;;;5037856;28;20502;-83
2021/01/02 10:40:12;;;;;;;43.90;28.17;;;205.40;1740.80;;;;;;5055354;28;20148;-81
2021/01/02 10:42:39;;;;;;;34.90;24.13;;;205.50;1740.80;;;;;;5037990;28;20025;-80
2021/01/02 10:45:08;;;;;;;36.92;21.00;;;205.60;1715.20;;;;;;5055739;28;20025;-83
2021/01/02 10:47:34;;;;;;;28.55;20.13;;;230.50;1689.60;;;;;;5037556;28;20358;-80
2021/01/02 10:49:59;;;;;;;38.08;21.83;;;230.60;1664.00;;;;;;5038544;28;20035;-83
2021/01/02 10:52:27;;;;;;;34.53;22.10;;;230.70;1612.80;;;;;;5055881;28;20051;-80
2021/01/02 10:54:54;;;;;;;37.95;21.70;;;230.80;1638.40;;;;;;5037435;28;20479;-82
2021/01/02 10:57:24;;;;;;;57.60;33.58;;;230.90;1612.80;;;;;;5037822;28;20025;-79
2021/01/02 10:59:51;;;;;;;71.22;41.03;;;231.10;1561.60;;;;;;5038042;28;20037;-82
2021/01/02 11:02:17;;;;;;;67.13;36.97;;;256.40;1536.00;;;;;;5037422;28;20025;-81
2021/01/02 11:04:43;;;;;;;48.88;26.75;;;256.10;1561.60;;;;;;5055164;28;20021;-79
2021/01/02 11:07:09;;;;;;;42.95;26.23;;;256.10;1536.00;;;;;;5037138;28;20468;-80
2021/01/02 11:09:36;;;;;;;69.55;40.75;;;256.30;1484.80;;;;;;5036333;28;20041;-83
2021/01/02 11:12:02;;;;;;;48.40;27.67;;;256.40;1510.40;;;;;;5037448;28;20484;-80
2021/01/02 11:14:28;;;;;;;31.08;18.88;;;256.50;1484.80;;;;;;5037585;28;20387;-79
2021/01/02 11:16:55;;;;;;;25.83;17.20;;;256.60;1484.80;;;;;;5053942;28;20111;-79
2021/01/02 11:19:26;;;;;;;26.05;18.58;;;256.50;1510.40;;;;;;5054655;28;20037;-81
2021/01/02 11:21:54;;;;;;;21.63;15.35;;;256.50;1536.00;;;;;;5036646;28;20033;-80
2021/01/02 11:24:23;;;;;;;24.08;17.60;;;256.50;1536.00;;;;;;5055027;28;20017;-82
2021/01/02 11:26:52;;;;;;;31.75;18.92;;;256.70;1484.80;;;;;;5037117;28;20021;-81
2021/01/02 11:29:20;;;;;;;24.27;16.58;;;256.80;1484.80;;;;;;5036794;28;20055;-83
2021/01/02 11:31:46;;;;;;;22.85;16.60;;;256.90;1484.80;;;;;;5053517;28;20031;-81
2021/01/02 11:34:13;;;;;;;30.98;19.55;;;256.90;1484.80;;;;;;5037886;28;20061;-79
2021/01/02 11:36:39;;;;;;;27.42;17.80;;;282.30;1484.80;;;;;;5036568;28;20029;-80
2021/01/02 11:39:06;;;;;;;28.02;16.85;;;281.90;1484.80;;;;;;5055067;28;20087;-79
2021/01/02 11:41:38;;;;;;;37.90;25.15;;;282.10;1484.80;;;;;;5037352;28;20025;-80
2021/01/02 11:44:10;;;;;;;59.87;38.37;;;282.20;1459.20;;;;;;5054384;28;20025;-80
2021/01/02 11:46:42;;;;;;;25.50;16.63;;;282.50;1459.20;;;;;;5036937;28;20116;-80
2021/01/02 11:49:10;;;;;;;155.88;84.15;;;307.20;1459.20;;;;;;5036502;28;20175;-83
2021/01/02 11:51:36;;;;;;;34.28;22.80;;;307.30;1433.60;;;;;;5054469;28;20048;-83
2021/01/02 11:54:04;;;;;;;31.23;21.10;;;307.50;1433.60;;;;;;5054366;28;20064;-83
2021/01/02 11:56:29;;;;;;;54.47;40.22;;;307.60;1408.00;;;;;;5053035;28;20073;-82
2021/01/02 11:59:00;;;;;;;41.92;29.67;;;307.80;1382.40;;;;;;5053055;28;20119;-83
2021/01/02 12:01:38;;;;;;;28.10;18.92;;;308.00;1356.80;;;;;;5052229;28;20029;-83
2021/01/02 12:04:07;;;;;;;26.08;17.70;;;332.90;1356.80;;;;;;5052947;28;20529;-81
2021/01/02 12:06:33;;;;;;;18.98;13.18;;;333.00;1331.20;;;;;;5052925;28;20036;-81
2021/01/02 12:08:59;;;;;;;24.00;17.00;;;333.50;1305.60;;;;;;5052923;28;20036;-81
2021/01/02 12:11:30;;;;;;;25.67;16.13;;;333.30;1305.60;;;;;;5052686;28;20496;-82
2021/01/02 12:13:56;;;;;;;22.30;15.82;;;333.40;1305.60;;;;;;5053577;28;20068;-83
2021/01/02 12:16:49;;;;;;;17.88;11.98;;;333.50;1280.00;;;;;;5051866;28;20025;-81
2021/01/02 12:19:18;;;;;;;16.42;10.52;;;333.60;1280.00;;;;;;5034966;28;20041;-80
2021/01/02 12:21:44;;;;;;;15.88;12.45;;;333.70;1254.40;;;;;;5035522;28;20025;-81
2021/01/02 12:24:11;;;;;;;22.25;14.65;;;307.30;1254.40;;;;;;5035811;28;20025;-82
2021/01/02 12:26:48;;;;;;;24.42;17.20;;;358.40;1280.00;;;;;;5034947;28;20024;-81
2021/01/02 12:29:17;;;;;;;23.65;13.32;;;358.50;1254.40;;;;;;5028836;28;20028;-80
2021/01/02 12:31:51;;;;;;;19.17;13.60;;;358.50;1228.80;;;;;;5018205;28;20450;-81
2021/01/02 12:34:17;;;;;;;;;;;358.50;1228.80;;;;;;5035242;28;20021;-80
2021/01/02 12:36:43;;;;;;;22.80;14.18;;;358.40;1254.40;;;;;;5052424;28;19951;-81
2021/01/02 12:39:12;;;;;;;27.42;17.35;;;358.40;1254.40;;;;;;5035316;28;20071;-81
2021/01/02 12:41:38;;;;;;;23.05;14.15;;;333.70;1254.40;;;;;;5035848;28;20461;-80
2021/01/02 12:44:05;;;;;;;23.38;15.57;;;333.60;1280.00;;;;;;5035947;28;20029;-82
2021/01/02 12:46:39;;;;;;;23.05;15.07;;;384.00;1280.00;;;;;;5035695;28;20029;-80
2021/01/02 12:49:06;;;;;;;19.98;12.43;;;333.60;1254.40;;;;;;5035821;28;20033;-82
2021/01/02 12:51:32;;;;;;;19.80;15.95;;;333.20;1280.00;;;;;;5036258;28;20028;-81
2021/01/02 12:53:58;;;;;;;35.40;21.70;;;333.30;1280.00;;;;;;5035640;28;20376;-80
2021/01/02 12:56:24;;;;;;;22.67;15.13;;;333.30;1280.00;;;;;;5052081;28;20048;-81
2021/01/02 12:58:49;;;;;;;17.17;12.13;;;333.40;1280.00;;;;;;5035643;28;20082;-83
2021/01/02 13:01:16;;;;;;;23.50;16.10;;;333.50;1254.40;;;;;;5035532;28;20029;-81
2021/01/02 13:03:42;;;;;;;23.80;13.25;;;333.50;1305.60;;;;;;5035757;28;20412;-81
2021/01/02 13:06:12;;;;;;;19.60;12.23;;;333.50;1280.00;;;;;;5035476;28;20025;-80
2021/01/02 13:08:38;;;;;;;16.35;9.95;;;333.60;1228.80;;;;;;5035924;28;20483;-79
2021/01/02 13:11:07;;;;;;;19.17;10.13;;;333.70;1203.20;;;;;;5035860;28;20025;-83
2021/01/02 13:13:33;;;;;;;26.60;17.90;;;358.40;1228.80;;;;;;5035398;28;20095;-82
2021/01/02 13:15:59;;;;;;;31.10;19.83;;;358.40;1177.60;;;;;;5035966;28;20115;-81
2021/01/02 13:18:26;;;;;;;44.92;26.77;;;358.60;1177.60;;;;;;5034379;28;20477;-80
2021/01/02 13:20:52;;;;;;;16.70;10.23;;;358.60;1152.00;;;;;;5051686;28;20456;-81
2021/01/02 13:23:19;;;;;;;27.55;18.40;;;333.50;1152.00;;;;;;5051422;28;20103;-81
2021/01/02 13:25:45;;;;;;;30.20;19.90;;;333.20;1203.20;;;;;;5052127;28;20033;-79
2021/01/02 13:28:11;;;;;;;37.03;24.58;;;333.50;1177.60;;;;;;5051734;28;20025;-79
2021/01/02 13:30:37;;;;;;;60.45;37.50;;;333.70;1152.00;;;;;;5052051;28;20044;-80
2021/01/02 13:33:03;;;;;;;49.88;27.65;;;333.70;1126.40;;;;;;5054102;28;20031;-80
2021/01/02 13:35:28;;;;;;;14.32;9.82;;;333.50;1152.00;;;;;;5056752;28;20051;-79
2021/01/02 13:37:54;;;;;;;18.13;11.85;;;333.50;1152.00;;;;;;5057024;28;20049;-79
2021/01/02 13:40:20;;;;;;;40.10;25.95;;;333.50;1152.00;;;;;;5056245;28;20033;-79
2021/01/02 13:42:46;;;;;;;43.10;27.08;;;333.50;1152.00;;;;;;5055169;28;20028;-78
2021/01/02 13:45:12;;;;;;;78.03;50.08;;;333.50;1203.20;;;;;;5055296;28;20017;-79
2021/01/02 13:47:38;;;;;;;40.50;26.83;;;333.30;1203.20;;;;;;5055243;28;20025;-81
2021/01/02 13:50:05;;;;;;;21.92;13.43;;;333.20;1203.20;;;;;;5054897;28;20025;-82
2021/01/02 13:52:31;;;;;;;20.10;13.05;;;333.20;1228.80;;;;;;5056367;28;20029;-82
2021/01/02 13:54:57;;;;;;;15.13;11.27;;;333.20;1203.20;;;;;;5056013;28;20036;-79
2021/01/02 13:57:23;;;;;;;22.10;13.45;;;333.20;1228.80;;;;;;5055294;28;20032;-77
2021/01/02 13:59:51;;;;;;;14.57;8.75;;;333.20;1228.80;;;;;;5056601;28;20393;-84
2021/01/02 14:02:18;;;;;;;16.35;10.07;;;333.20;1203.20;;;;;;5054938;28;20105;-81
2021/01/02 14:04:43;;;;;;;27.00;19.85;;;333.00;1203.20;;;;;;5054839;28;20064;-79
2021/01/02 14:07:10;;;;;;;16.20;11.52;;;333.30;1203.20;;;;;;5055997;28;20049;-81
2021/01/02 14:09:36;;;;;;;15.70;9.95;;;333.20;1203.20;;;;;;5054677;28;20087;-81
2021/01/02 14:12:04;;;;;;;26.08;14.50;;;333.20;1228.80;;;;;;5055014;28;20025;-81
2021/01/02 14:14:32;;;;;;;20.48;13.05;;;332.90;1228.80;;;;;;5056140;28;20111;-78
2021/01/02 14:16:59;;;;;;;11.95;8.23;;;332.80;1254.40;;;;;;5054498;28;20032;-81
2021/01/02 14:19:27;;;;;;;16.13;9.80;;;308.00;1228.80;;;;;;5056047;28;20440;-82
2021/01/02 14:21:57;;;;;;;20.05;16.05;;;307.90;1280.00;;;;;;5054837;28;20029;-77
2021/01/02 14:24:23;;;;;;;44.42;32.75;;;307.70;1305.60;;;;;;5056050;28;20020;-80
2021/01/02 14:26:50;;;;;;;40.08;23.58;;;307.60;1305.60;;;;;;5054777;28;20025;-80
2021/01/02 14:29:17;;;;;;;49.40;33.95;;;307.50;1331.20;;;;;;5054631;28;20037;-77
2021/01/02 14:31:44;;;;;;;49.20;36.38;;;307.40;1331.20;;;;;;5054520;28;20530;-79
2021/01/02 14:34:14;;;;;;;19.85;10.90;;;307.30;1331.20;;;;;;5055828;28;20041;-77
2021/01/02 14:36:45;;;;;;;24.55;14.23;;;307.30;1331.20;;;;;;5054715;28;20148;-78
2021/01/02 14:39:11;;;;;;;24.48;17.08;;;307.20;1331.20;;;;;;5054213;28;20041;-78
2021/01/02 14:41:37;;;;;;;15.57;11.10;;;282.50;1331.20;;;;;;5037844;28;20070;-79
2021/01/02 14:44:03;;;;;;;21.35;16.55;;;282.50;1305.60;;;;;;5053697;28;20044;-80
2021/01/02 14:46:34;;;;;;;18.88;14.65;;;282.50;1305.60;;;;;;5054354;28;20116;-79
2021/01/02 14:49:01;;;;;;;25.37;18.27;;;282.30;1331.20;;;;;;5055612;28;20025;-79
2021/01/02 14:51:42;;;;;;;12.43;8.98;;;282.20;1331.20;;;;;;5053979;28;20039;-80
2021/01/02 14:54:09;;;;;;;22.40;15.32;;;282.20;1331.20;;;;;;5054922;28;20051;-81
2021/01/02 14:56:35;;;;;;;24.40;14.80;;;282.20;1331.20;;;;;;5055112;28;20021;-78
2021/01/02 14:59:01;;;;;;;18.10;10.88;;;282.10;1331.20;;;;;;5055072;28;20056;-79
2021/01/02 15:01:27;;;;;;;22.83;14.88;;;282.50;1356.80;;;;;;5054133;28;20048;-80
2021/01/02 15:03:53;;;;;;;15.05;9.73;;;282.10;1356.80;;;;;;5037442;28;20025;-81
2021/01/02 15:06:19;;;;;;;53.80;34.50;;;282.00;1356.80;;;;;;5054185;28;20025;-81
2021/01/02 15:08:45;;;;;;;41.22;25.23;;;282.00;1356.80;;;;;;5053685;28;20484;-80
2021/01/02 15:11:11;;;;;;;37.25;21.38;;;256.80;1331.20;;;;;;5054156;28;20464;-81
2021/01/02 15:13:37;;;;;;;33.90;27.40;;;282.00;1356.80;;;;;;5053737;28;20096;-80
2021/01/02 15:16:04;;;;;;;13.23;8.43;;;281.90;1356.80;;;;;;5054589;28;20025;-82
2021/01/02 15:18:30;;;;;;;12.95;8.90;;;281.90;1356.80;;;;;;5055131;28;20032;-83
2021/01/02 15:20:56;;;;;;;13.63;8.00;;;281.90;1382.40;;;;;;5053841;28;20037;-82
2021/01/02 15:23:22;;;;;;;9.18;5.18;;;281.80;1382.40;;;;;;5054657;28;20025;-80
2021/01/02 15:25:48;;;;;;;17.80;8.82;;;281.80;1382.40;;;;;;5055469;28;20055;-80
2021/01/02 15:28:14;;;;;;;20.10;13.82;;;281.80;1382.40;;;;;;5053698;28;20461;-80
2021/01/02 15:30:40;;;;;;;11.75;7.72;;;281.70;1408.00;;;;;;5053701;28;20431;-79
2021/01/02 15:33:06;;;;;;;11.70;7.53;;;281.70;1408.00;;;;;;5052395;28;20024;-80
2021/01/02 15:35:32;;;;;;;18.63;11.95;;;281.70;1408.00;;;;;;5053489;28;20025;-80
2021/01/02 15:38:00;;;;;;;18.58;11.88;;;281.70;1408.00;;;;;;5052954;28;20135;-80
2021/01/02 15:40:26;;;;;;;18.52;10.93;;;281.60;1408.00;;;;;;5036675;28;20059;-79